Time;durP1;ratioP1;P1;durP2;ratioP2;P2;SDS_P1;SDS_P2;PMS_P1;PMS_P2;Temp;Humidity;BMP_temperature;BMP_pressure;BME280_temperature;BME280_humidity;BME280_pressure;Samples;Min_cycle;Max_cycle;Signal;HPM_P1;HPM_P2
2021/12/10 00:01:49;;;;;;;14.13;7.20;;;;;;;6.36;70.36;100567.27;1682790;83;21031;-58
2021/12/10 00:04:19;;;;;;;15.70;7.55;;;;;;;6.37;70.25;100565.02;1678292;83;20997;-58
2021/12/10 00:06:50;;;;;;;16.05;7.70;;;;;;;6.37;70.18;100568.48;1653756;83;21035;-59
2021/12/10 00:09:25;;;;;;;11.70;7.00;;;;;;;6.35;69.91;100575.55;1682656;83;21237;-59
2021/12/10 00:12:06;;;;;;;14.78;7.90;;;;;;;6.31;69.73;100575.38;1680100;83;21360;-58
2021/12/10 00:14:34;;;;;;;10.60;5.55;;;;;;;6.23;69.62;100573.20;1681734;83;21047;-58
2021/12/10 00:17:01;;;;;;;11.45;6.28;;;;;;;6.24;69.58;100574.89;1654695;83;21062;-57
2021/12/10 00:19:42;;;;;;;10.55;6.08;;;;;;;6.31;69.56;100577.52;1669546;84;21105;-58
2021/12/10 00:22:10;;;;;;;11.38;6.45;;;;;;;6.39;69.60;100576.20;1645620;85;21237;-58
2021/12/10 00:24:38;;;;;;;12.95;7.20;;;;;;;6.45;69.78;100574.07;1650445;85;21070;-58
2021/12/10 00:27:07;;;;;;;12.85;7.03;;;;;;;6.42;69.59;100569.05;1679726;83;21066;-58
2021/12/10 00:29:35;;;;;;;11.38;6.47;;;;;;;6.40;69.87;100573.51;1678445;83;21798;-58
2021/12/10 00:32:06;;;;;;;18.82;7.50;;;;;;;6.39;70.05;100567.92;1682551;83;21536;-59
2021/12/10 00:34:41;;;;;;;12.65;7.15;;;;;;;6.36;69.91;100578.55;1679657;83;21144;-58
2021/12/10 00:37:10;;;;;;;12.68;6.25;;;;;;;6.33;70.05;100582.17;1683977;83;21077;-58
2021/12/10 00:39:44;;;;;;;8.95;5.08;;;;;;;6.40;69.87;100577.42;1681363;83;22303;-59
2021/12/10 00:42:15;;;;;;;9.70;5.40;;;;;;;6.49;69.65;100575.59;1667102;83;21090;-59
2021/12/10 00:44:41;;;;;;;14.43;6.53;;;;;;;6.56;69.47;100579.16;1652687;85;21084;-59
2021/12/10 00:47:08;;;;;;;12.05;6.28;;;;;;;6.56;69.40;100576.06;1650175;84;21158;-58
2021/12/10 00:49:34;;;;;;;13.00;6.10;;;;;;;6.57;69.69;100574.28;1648444;84;21144;-58
2021/12/10 00:52:01;;;;;;;12.47;7.08;;;;;;;6.57;69.73;100576.41;1616198;86;21122;-58
2021/12/10 00:54:27;;;;;;;13.00;7.72;;;;;;;6.58;69.79;100579.42;1602937;86;21631;-58
2021/12/10 00:56:54;;;;;;;13.68;7.28;;;;;;;6.59;69.97;100580.25;1653150;85;21085;-58
2021/12/10 00:59:20;;;;;;;13.22;7.80;;;;;;;6.57;69.82;100575.11;1647556;85;22021;-59
2021/12/10 01:01:48;;;;;;;14.60;6.65;;;;;;;6.51;69.79;100567.17;1651948;85;21078;-59
2021/12/10 01:04:20;;;;;;;11.53;5.72;;;;;;;6.52;69.78;100570.62;1648388;85;21137;-58
2021/12/10 01:06:49;;;;;;;11.73;6.15;;;;;;;6.62;69.66;100567.86;1651204;85;21072;-58
2021/12/10 01:09:20;;;;;;;11.30;6.45;;;;;;;6.68;69.75;100562.23;1641056;84;21078;-59
2021/12/10 01:11:51;;;;;;;12.60;6.53;;;;;;;6.70;69.76;100557.74;1650483;84;21220;-58
2021/12/10 01:14:32;;;;;;;11.78;7.37;;;;;;;6.70;69.83;100556.44;1647919;85;21135;-58
2021/12/10 01:25:25;;;;;;;12.47;6.50;;;;;;;6.58;70.30;100548.52;1638869;86;21264;-58
2021/12/10 01:27:43;;;;;;;16.35;7.05;;;;;;;6.46;70.22;100545.70;1637015;85;21095;-58
2021/12/10 01:30:21;;;;;;;10.32;5.60;;;;;;;6.47;70.12;100542.17;1608438;86;21085;-59
2021/12/10 01:32:53;;;;;;;11.20;6.58;;;;;;;6.56;69.87;100538.63;1653457;85;21042;-58
2021/12/10 01:35:24;;;;;;;12.40;7.37;;;;;;;6.61;70.00;100532.17;1630474;85;21038;-58
2021/12/10 01:37:51;;;;;;;15.50;7.62;;;;;;;6.68;70.40;100532.16;1652685;85;21706;-58
2021/12/10 01:40:21;;;;;;;14.78;8.75;;;;;;;6.70;70.20;100528.98;1654738;84;21072;-59
2021/12/10 01:42:49;;;;;;;17.62;8.43;;;;;;;6.70;70.25;100519.83;1636123;85;21620;-58
2021/12/10 01:45:23;;;;;;;14.18;8.08;;;;;;;6.74;70.45;100514.41;1620488;86;21599;-59
2021/12/10 01:47:55;;;;;;;16.23;8.23;;;;;;;6.76;70.33;100519.94;1679284;82;21096;-59
2021/12/10 01:50:22;;;;;;;15.32;7.45;;;;;;;6.73;70.01;100513.58;1685036;83;21173;-59
2021/12/10 01:52:51;;;;;;;15.18;7.67;;;;;;;6.70;70.04;100512.45;1684045;83;21342;-59
2021/12/10 01:55:20;;;;;;;14.38;6.90;;;;;;;6.73;69.79;100509.66;1668782;83;21044;-58
2021/12/10 01:57:47;;;;;;;11.70;6.45;;;;;;;6.78;69.37;100515.44;1689431;83;21648;-61
2021/12/10 02:00:14;;;;;;;11.95;6.87;;;;;;;6.79;69.37;100515.83;1686716;83;21653;-60
2021/12/10 02:02:45;;;;;;;14.33;7.17;;;;;;;6.79;69.55;100519.75;1683828;83;21206;-59
2021/12/10 02:05:11;;;;;;;14.43;8.00;;;;;;;6.74;69.78;100513.10;1683862;83;21597;-60
2021/12/10 02:07:38;;;;;;;12.13;6.83;;;;;;;6.69;70.02;100528.63;1680405;83;21067;-59
2021/12/10 02:10:07;;;;;;;13.70;7.35;;;;;;;6.69;70.40;100526.45;1682858;83;21093;-60
2021/12/10 02:12:33;;;;;;;13.95;6.35;;;;;;;6.70;70.49;100522.91;1681607;83;21051;-59
2021/12/10 02:15:03;;;;;;;13.22;6.90;;;;;;;6.70;70.60;100525.05;1681128;83;21403;-59
2021/12/10 02:17:37;;;;;;;12.18;6.55;;;;;;;6.70;70.41;100518.52;1684905;83;21029;-59
2021/12/10 02:20:08;;;;;;;12.20;6.55;;;;;;;6.73;70.28;100514.89;1686140;83;21444;-59
2021/12/10 02:22:35;;;;;;;12.15;5.95;;;;;;;6.82;70.00;100509.07;1651507;84;22500;-59
2021/12/10 02:25:04;;;;;;;9.38;5.70;;;;;;;6.89;70.02;100508.22;1652481;85;21112;-59
2021/12/10 02:31:50;;;;;;;12.98;6.50;;;;;;;6.97;70.55;100529.98;1639742;85;21053;-59
2021/12/10 02:34:16;;;;;;;10.80;6.00;;;;;;;6.97;70.62;100532.61;1615196;86;21084;-59
2021/12/10 02:36:43;;;;;;;9.73;5.87;;;;;;;6.95;70.46;100533.17;1620264;86;21076;-59
2021/12/10 02:39:14;;;;;;;11.90;5.90;;;;;;;6.88;70.14;100529.63;1619755;86;21154;-59
2021/12/10 02:41:41;;;;;;;10.68;5.62;;;;;;;6.80;70.46;100527.12;1640784;85;21296;-59
2021/12/10 02:44:10;;;;;;;10.68;5.70;;;;;;;6.81;70.62;100528.81;1620412;86;21049;-59
2021/12/10 02:46:37;;;;;;;8.85;4.80;;;;;;;6.90;70.46;100535.23;1618973;86;21119;-59
2021/12/10 02:49:05;;;;;;;10.30;5.50;;;;;;;6.97;70.56;100532.61;1651777;85;21086;-59
2021/12/10 02:51:32;;;;;;;9.15;5.28;;;;;;;7.02;70.43;100533.98;1654095;85;21082;-59
2021/12/10 02:53:59;;;;;;;10.85;6.22;;;;;;;7.01;70.36;100542.79;1653600;85;21217;-59
2021/12/10 02:56:26;;;;;;;11.15;5.97;;;;;;;6.94;70.42;100537.55;1621864;86;21131;-59
2021/12/10 02:58:54;;;;;;;10.38;5.05;;;;;;;6.87;70.58;100541.01;1648830;85;21105;-59
2021/12/10 03:01:29;;;;;;;11.48;6.08;;;;;;;6.82;70.58;100538.32;1610955;85;21154;-59
2021/12/10 03:03:56;;;;;;;10.20;5.72;;;;;;;6.73;70.58;100534.50;1649105;85;21106;-58
2021/12/10 03:06:23;;;;;;;10.40;6.00;;;;;;;6.63;70.88;100537.31;1648285;85;21083;-59
2021/12/10 03:08:51;;;;;;;9.63;5.83;;;;;;;6.63;71.05;100534.70;1654868;84;21067;-60
2021/12/10 03:11:22;;;;;;;10.28;5.90;;;;;;;6.71;70.77;100538.99;1648783;85;21090;-60
2021/12/10 03:13:49;;;;;;;10.60;5.33;;;;;;;6.73;70.81;100542.83;1650475;85;21051;-59
2021/12/10 03:16:15;;;;;;;10.43;6.15;;;;;;;6.79;71.14;100545.91;1650983;85;21086;-59
2021/12/10 03:18:42;;;;;;;10.20;5.45;;;;;;;6.84;71.24;100546.45;1647741;84;21332;-59
2021/12/10 03:21:12;;;;;;;12.68;6.90;;;;;;;6.86;71.36;100548.50;1649752;85;21142;-59
2021/12/10 03:23:42;;;;;;;10.08;6.28;;;;;;;6.88;71.38;100550.55;1648242;85;21074;-59
2021/12/10 03:26:11;;;;;;;13.78;6.83;;;;;;;6.86;71.27;100543.27;1648016;85;21532;-60
2021/12/10 03:28:39;;;;;;;9.98;6.35;;;;;;;6.86;71.29;100542.44;1615186;86;21154;-60
2021/12/10 03:31:06;;;;;;;11.73;6.85;;;;;;;6.85;71.36;100552.05;1651381;83;21105;-59
2021/12/10 03:33:32;;;;;;;10.30;5.80;;;;;;;6.85;71.21;100540.27;1682118;83;21046;-60
2021/12/10 03:35:59;;;;;;;10.80;5.78;;;;;;;6.84;70.97;100535.99;1665144;83;21087;-60
2021/12/10 03:38:25;;;;;;;9.73;5.30;;;;;;;6.90;70.82;100539.99;1681337;83;21089;-59
2021/12/10 03:40:52;;;;;;;10.98;5.95;;;;;;;6.98;70.97;100542.14;1684789;83;21047;-59
2021/12/10 03:43:19;;;;;;;11.10;6.28;;;;;;;7.05;71.37;100542.13;1659531;84;21092;-58
2021/12/10 03:45:50;;;;;;;11.03;6.53;;;;;;;7.06;70.96;100543.78;1685511;83;21090;-59
2021/12/10 03:48:22;;;;;;;13.62;6.92;;;;;;;7.02;70.90;100539.70;1681133;83;21515;-59
2021/12/10 03:50:48;;;;;;;12.23;7.00;;;;;;;7.01;71.16;100545.85;1653839;83;21563;-58
2021/12/10 03:53:16;;;;;;;12.25;7.25;;;;;;;6.98;71.25;100554.75;1678282;82;21130;-58
2021/12/10 03:55:43;;;;;;;12.85;6.30;;;;;;;6.96;71.41;100556.63;1682349;83;21121;-59
2021/12/10 03:58:10;;;;;;;11.78;6.30;;;;;;;7.04;71.41;100562.67;1687269;83;21086;-58
2021/12/10 04:00:44;;;;;;;13.20;6.70;;;;;;;7.13;71.04;100558.19;1661053;83;21657;-59
2021/12/10 04:03:12;;;;;;;11.90;6.85;;;;;;;7.17;70.65;100561.45;1680864;83;21094;-59
2021/12/10 04:05:40;;;;;;;12.00;6.90;;;;;;;7.20;70.91;100560.78;1676896;83;21165;-59
2021/12/10 04:08:07;;;;;;;12.13;6.65;;;;;;;7.17;70.98;100553.12;1680443;83;21144;-59
2021/12/10 04:10:33;;;;;;;15.45;8.43;;;;;;;7.17;70.99;100552.29;1684190;83;21104;-59
2021/12/10 04:13:00;;;;;;;11.65;7.05;;;;;;;7.12;70.94;100542.58;1682467;83;21083;-59
2021/12/10 04:15:28;;;;;;;17.07;7.50;;;;;;;7.06;70.96;100541.17;1684453;83;21036;-59
2021/12/10 04:17:56;;;;;;;12.03;7.10;;;;;;;7.00;71.06;100537.65;1678731;83;21418;-59
2021/12/10 04:20:25;;;;;;;14.35;8.68;;;;;;;6.93;71.08;100542.42;1689882;83;21246;-59
2021/12/10 04:22:53;;;;;;;11.60;7.40;;;;;;;6.93;71.18;100542.42;1682249;83;21083;-59
2021/12/10 04:25:24;;;;;;;12.05;7.00;;;;;;;7.04;71.05;100546.98;1685150;83;21532;-60
2021/12/10 04:27:50;;;;;;;13.08;6.95;;;;;;;7.09;71.25;100550.14;1682129;83;21118;-59
2021/12/10 04:30:16;;;;;;;14.10;7.42;;;;;;;7.14;71.21;100552.00;1677703;83;21579;-59
2021/12/10 04:32:43;;;;;;;12.63;8.20;;;;;;;7.13;71.15;100541.17;1642103;84;21442;-59
2021/12/10 04:35:10;;;;;;;14.07;8.63;;;;;;;7.13;71.30;100539.87;1660461;84;21067;-58
2021/12/10 04:37:37;;;;;;;16.57;9.38;;;;;;;7.12;71.22;100544.72;1660947;84;21055;-57
2021/12/10 04:40:06;;;;;;;17.02;9.43;;;;;;;7.11;71.32;100546.98;1658945;84;21115;-57
2021/12/10 04:42:35;;;;;;;14.98;9.43;;;;;;;7.10;71.10;100547.91;1661717;84;21070;-57
2021/12/10 04:46:35;;;;;;;14.60;8.50;;;;;;;7.09;70.89;100516.60;1777762;78;22759;-60
2021/12/10 04:49:05;;;;;;;15.03;8.28;;;;;;;7.10;70.68;100521.74;1745970;80;20931;-57
2021/12/10 04:51:40;;;;;;;17.27;7.97;;;;;;;7.15;70.35;100522.77;1725768;80;22171;-58
2021/12/10 04:54:07;;;;;;;10.40;6.30;;;;;;;7.14;70.29;100519.77;1720342;81;21043;-58
2021/12/10 04:56:34;;;;;;;13.85;7.62;;;;;;;7.13;70.30;100525.92;1715841;81;20926;-58
2021/12/10 04:59:02;;;;;;;14.83;7.42;;;;;;;7.09;70.61;100518.73;1698187;83;21044;-57
2021/12/10 05:01:29;;;;;;;12.63;7.08;;;;;;;7.09;70.77;100526.59;1700222;82;20983;-57
2021/12/10 05:03:55;;;;;;;12.70;7.97;;;;;;;7.07;70.68;100531.92;1707500;83;21061;-57
2021/12/10 05:06:22;;;;;;;15.10;7.70;;;;;;;7.07;70.73;100526.69;1691121;83;21031;-58
2021/12/10 05:08:48;;;;;;;14.13;7.87;;;;;;;7.05;70.88;100519.41;1709312;82;21416;-57
2021/12/10 05:11:14;;;;;;;15.08;8.10;;;;;;;7.04;70.70;100519.50;1685575;82;21159;-56
2021/12/10 05:13:44;;;;;;;11.80;6.97;;;;;;;7.06;70.66;100515.00;1688758;83;21106;-57
2021/12/10 05:16:11;;;;;;;12.53;6.72;;;;;;;7.16;70.42;100530.52;1710377;82;21097;-57
2021/12/10 05:18:40;;;;;;;15.70;8.05;;;;;;;7.20;70.23;100534.61;1711862;82;21046;-57
2021/12/10 05:21:08;;;;;;;14.07;7.85;;;;;;;7.17;70.27;100533.48;1711040;82;21083;-57
2021/12/10 05:23:35;;;;;;;16.35;7.25;;;;;;;7.13;70.50;100533.33;1697317;82;21165;-57
2021/12/10 05:26:01;;;;;;;12.78;6.70;;;;;;;7.10;70.77;100538.75;1678735;82;21546;-57
2021/12/10 05:28:27;;;;;;;13.30;8.13;;;;;;;7.06;70.74;100536.80;1711335;82;22221;-57
2021/12/10 05:30:56;;;;;;;12.45;7.70;;;;;;;7.02;70.78;100537.91;1707378;82;21177;-58
2021/12/10 05:33:24;;;;;;;15.35;7.85;;;;;;;6.99;70.96;100542.50;1706439;82;21149;-57
2021/12/10 05:35:51;;;;;;;10.80;6.70;;;;;;;6.96;71.00;100543.99;1697957;82;21064;-57
2021/12/10 05:38:18;;;;;;;11.73;6.65;;;;;;;6.99;70.99;100550.34;1711258;82;21579;-58
2021/12/10 05:40:47;;;;;;;11.78;7.08;;;;;;;7.06;70.80;100548.57;1705172;82;22366;-57
2021/12/10 05:43:13;;;;;;;11.22;6.83;;;;;;;7.13;70.76;100555.57;1686980;83;21118;-58
2021/12/10 05:45:40;;;;;;;12.85;7.37;;;;;;;7.17;70.66;100557.52;1694337;82;21172;-57
2021/12/10 05:48:06;;;;;;;12.03;7.03;;;;;;;7.11;70.88;100556.14;1698737;83;20989;-57
2021/12/10 05:50:33;;;;;;;12.73;7.22;;;;;;;7.07;71.10;100553.33;1691156;83;21113;-58
2021/12/10 05:52:59;;;;;;;11.25;6.75;;;;;;;7.06;71.14;100566.03;1666183;83;21919;-57
2021/12/10 05:55:26;;;;;;;13.98;7.87;;;;;;;7.02;71.25;100564.08;1694843;83;21066;-58
2021/12/10 05:57:52;;;;;;;13.55;7.58;;;;;;;7.03;71.17;100570.17;1668101;83;21074;-58
2021/12/10 06:00:27;;;;;;;12.45;7.17;;;;;;;6.98;71.31;100566.52;1693661;83;21074;-59
2021/12/10 06:02:54;;;;;;;13.43;6.95;;;;;;;7.03;71.20;100564.94;1692917;83;21149;-60
2021/12/10 06:05:21;;;;;;;10.70;6.10;;;;;;;7.14;70.92;100563.77;1665244;83;21220;-57
2021/12/10 06:07:48;;;;;;;13.83;7.15;;;;;;;7.22;70.66;100567.23;1693100;83;21588;-58
2021/12/10 06:10:16;;;;;;;10.65;6.05;;;;;;;7.22;70.75;100566.75;1674957;84;21075;-57
2021/12/10 06:12:43;;;;;;;13.75;7.62;;;;;;;7.22;70.97;100562.00;1694249;83;21075;-57
2021/12/10 06:15:10;;;;;;;10.82;6.90;;;;;;;7.20;70.94;100561.26;1679400;82;21008;-58
2021/12/10 06:17:37;;;;;;;11.80;6.95;;;;;;;7.17;70.96;100566.20;1743772;80;21068;-57
2021/12/10 06:20:05;;;;;;;12.37;6.85;;;;;;;7.14;70.95;100566.87;1681133;82;21078;-57
2021/12/10 06:22:33;;;;;;;12.90;8.00;;;;;;;7.11;70.98;100569.67;1685935;83;21585;-57
2021/12/10 06:24:59;;;;;;;13.22;7.22;;;;;;;7.07;71.06;100567.24;1694289;83;21023;-57
2021/12/10 06:27:26;;;;;;;14.30;6.37;;;;;;;7.08;71.12;100565.48;1696314;82;21976;-58
2021/12/10 06:29:53;;;;;;;14.33;7.15;;;;;;;7.19;70.83;100576.09;1680852;83;21099;-58
2021/12/10 06:32:19;;;;;;;13.25;6.35;;;;;;;7.27;70.89;100578.73;1706621;82;20991;-59
2021/12/10 06:34:45;;;;;;;12.35;6.60;;;;;;;7.29;70.88;100576.37;1703043;83;22068;-58
2021/12/10 06:37:12;;;;;;;15.32;8.20;;;;;;;7.29;71.19;100575.06;1679886;83;21051;-58
2021/12/10 06:39:38;;;;;;;14.65;7.12;;;;;;;7.31;71.32;100569.25;1678561;82;21542;-59
2021/12/10 06:42:05;;;;;;;12.18;7.67;;;;;;;7.35;71.36;100566.83;1703808;83;21154;-60
2021/12/10 06:44:32;;;;;;;12.43;7.75;;;;;;;7.36;71.00;100563.73;1706517;82;21066;-59
2021/12/10 06:46:59;;;;;;;12.40;7.55;;;;;;;7.31;70.84;100569.25;1706106;82;21046;-60
2021/12/10 06:49:25;;;;;;;11.33;7.05;;;;;;;7.25;71.14;100574.42;1698625;82;21083;-57
2021/12/10 06:51:51;;;;;;;11.83;6.45;;;;;;;7.33;71.28;100571.77;1662563;84;21102;-57
2021/12/10 06:54:18;;;;;;;12.47;6.85;;;;;;;7.45;70.70;100572.32;1691879;83;21136;-58
2021/12/10 06:56:44;;;;;;;15.88;7.42;;;;;;;7.48;70.46;100572.13;1697623;82;21398;-57
2021/12/10 06:59:12;;;;;;;12.00;7.55;;;;;;;7.47;70.46;100571.75;1694017;83;21039;-57
2021/12/10 07:01:40;;;;;;;13.58;7.40;;;;;;;7.44;70.73;100569.32;1687623;83;21100;-58
2021/12/10 07:04:10;;;;;;;15.13;7.80;;;;;;;7.42;70.74;100563.35;1693209;83;21059;-58
2021/12/10 07:06:38;;;;;;;19.82;7.10;;;;;;;7.37;70.87;100571.48;1666460;84;21612;-58
2021/12/10 07:09:09;;;;;;;10.88;6.83;;;;;;;7.36;71.09;100572.45;1694510;82;21067;-58
2021/12/10 07:11:36;;;;;;;12.85;7.00;;;;;;;7.36;71.08;100578.12;1704294;82;20968;-60
2021/12/10 07:14:02;;;;;;;11.20;7.47;;;;;;;7.33;71.05;100579.18;1743542;80;21528;-59
2021/12/10 07:16:29;;;;;;;10.65;6.50;;;;;;;7.33;70.78;100577.88;1724756;82;21007;-58
2021/12/10 07:18:56;;;;;;;12.58;6.95;;;;;;;7.39;70.69;100574.02;1720766;80;21497;-58
2021/12/10 07:21:23;;;;;;;12.60;7.25;;;;;;;7.43;70.87;100572.42;1722080;81;21006;-59
2021/12/10 07:23:49;;;;;;;14.40;8.05;;;;;;;7.47;70.76;100569.61;1719076;80;21045;-59
2021/12/10 07:26:16;;;;;;;12.05;7.42;;;;;;;7.45;70.93;100563.16;1742396;80;20932;-58
2021/12/10 07:28:43;;;;;;;13.88;8.00;;;;;;;7.45;71.02;100557.92;1735583;82;21591;-56
2021/12/10 07:31:11;;;;;;;16.00;7.03;;;;;;;7.44;71.14;100558.37;1738293;81;21105;-60
2021/12/10 07:33:39;;;;;;;12.98;7.80;;;;;;;7.43;71.06;100543.62;1738925;81;20935;-59
2021/12/10 07:36:05;;;;;;;13.50;7.42;;;;;;;7.45;71.10;100527.81;1743678;80;21003;-65
2021/12/10 07:38:32;;;;;;;12.70;8.08;;;;;;;7.46;71.05;100528.16;1722995;81;21085;-61
2021/12/10 07:40:58;;;;;;;11.28;6.53;;;;;;;7.51;70.94;100505.62;1743136;80;21071;-60
2021/12/10 07:43:25;;;;;;;12.58;6.33;;;;;;;7.61;70.62;100501.45;1720842;82;21018;-63
2021/12/10 07:45:52;;;;;;;10.95;6.03;;;;;;;7.67;70.39;100502.38;1721127;80;21000;-61
2021/12/10 07:48:20;;;;;;;11.25;6.50;;;;;;;7.66;70.41;100505.92;1746929;81;20948;-60
2021/12/10 07:50:57;;;;;;;9.15;5.95;;;;;;;7.67;70.68;100505.47;1743039;80;20889;-62
2021/12/10 07:53:24;;;;;;;12.13;7.28;;;;;;;7.68;70.63;100496.65;1680300;82;20987;-60
2021/12/10 07:55:50;;;;;;;10.15;6.15;;;;;;;7.69;70.52;100497.03;1708774;82;21103;-62
2021/12/10 07:58:17;;;;;;;10.58;6.35;;;;;;;7.67;70.68;100507.61;1742763;80;20975;-61
2021/12/10 08:00:45;;;;;;;10.38;5.67;;;;;;;7.66;70.61;100509.02;1739324;80;21461;-61
2021/12/10 08:03:12;;;;;;;11.70;6.95;;;;;;;7.66;70.69;100512.95;1744881;80;21053;-61
2021/12/10 08:05:38;;;;;;;12.58;7.05;;;;;;;7.73;70.74;100523.38;1740334;80;21579;-61
2021/12/10 08:08:09;;;;;;;11.43;7.05;;;;;;;7.83;70.33;100514.45;1744414;81;21844;-61
2021/12/10 08:10:35;;;;;;;11.70;6.97;;;;;;;7.90;70.25;100526.19;1742027;80;20947;-61
2021/12/10 08:13:02;;;;;;;12.45;6.70;;;;;;;7.91;70.33;100530.50;1722471;80;21461;-60
2021/12/10 08:15:28;;;;;;;11.38;6.83;;;;;;;7.89;70.53;100522.73;1743282;80;20972;-61
2021/12/10 08:17:54;;;;;;;11.28;6.42;;;;;;;7.88;70.60;100517.12;1743977;80;20922;-60
2021/12/10 08:20:22;;;;;;;9.98;6.20;;;;;;;7.87;70.59;100517.22;1714392;82;21830;-60
2021/12/10 08:22:49;;;;;;;11.05;6.05;;;;;;;7.84;70.63;100514.34;1679336;82;21074;-62
2021/12/10 08:25:17;;;;;;;9.40;5.78;;;;;;;7.81;70.75;100514.55;1699712;82;21035;-61
2021/12/10 08:27:44;;;;;;;12.28;6.15;;;;;;;7.86;70.79;100507.22;1707671;82;21033;-60
2021/12/10 08:30:12;;;;;;;9.78;5.78;;;;;;;7.97;70.58;100509.14;1676262;82;21057;-60
2021/12/10 08:32:39;;;;;;;10.48;5.97;;;;;;;8.04;70.52;100510.88;1685042;82;21055;-62
2021/12/10 08:35:08;;;;;;;11.30;6.80;;;;;;;8.10;70.93;100520.92;1713548;80;21046;-62
2021/12/10 08:37:35;;;;;;;11.03;6.40;;;;;;;8.16;70.89;100516.11;1739553;80;21568;-62
2021/12/10 08:40:02;;;;;;;12.70;7.67;;;;;;;8.22;70.68;100519.25;1739351;80;21078;-60
2021/12/10 08:42:30;;;;;;;12.88;7.78;;;;;;;8.20;70.35;100528.53;1741385;80;21023;-60
2021/12/10 08:44:57;;;;;;;12.73;7.40;;;;;;;8.17;70.49;100523.04;1745821;80;21107;-62
2021/12/10 08:47:23;;;;;;;11.28;6.40;;;;;;;8.14;70.43;100519.31;1739033;80;21374;-61
2021/12/10 08:49:50;;;;;;;11.00;5.97;;;;;;;8.19;70.46;100526.88;1733234;81;21015;-60
2021/12/10 08:52:16;;;;;;;12.20;7.47;;;;;;;8.30;70.28;100519.09;1744905;80;21603;-60
2021/12/10 08:54:42;;;;;;;12.35;7.70;;;;;;;8.38;70.12;100516.78;1745814;80;21067;-62
2021/12/10 08:57:09;;;;;;;10.25;6.67;;;;;;;8.42;69.86;100511.34;1752411;80;22221;-59
2021/12/10 08:59:38;;;;;;;11.22;7.53;;;;;;;8.37;69.77;100509.02;1747300;80;21027;-58
2021/12/10 09:02:09;;;;;;;13.20;7.55;;;;;;;8.30;69.71;100509.92;1748687;80;21048;-60
2021/12/10 09:04:35;;;;;;;12.47;7.03;;;;;;;8.25;69.96;100502.84;1740850;81;21940;-60
2021/12/10 09:07:06;;;;;;;11.53;7.42;;;;;;;8.23;70.11;100499.49;1682772;82;21094;-59
2021/12/10 09:09:36;;;;;;;10.48;6.78;;;;;;;8.25;70.19;100492.84;1709652;82;21110;-61
2021/12/10 09:12:07;;;;;;;13.50;7.35;;;;;;;8.31;70.04;100489.32;1709098;82;21058;-60
2021/12/10 09:14:43;;;;;;;12.30;7.87;;;;;;;8.43;69.70;100488.15;1672655;84;21608;-61
2021/12/10 09:17:06;;;;;;;13.25;7.78;;;;;;;8.50;69.67;100482.83;1686236;84;21838;-61
2021/12/10 09:19:32;;;;;;;10.98;6.90;;;;;;;8.52;69.39;100475.69;1703861;82;21062;-60
2021/12/10 09:21:59;;;;;;;10.23;7.42;;;;;;;8.48;69.47;100469.83;1709517;82;22312;-60
2021/12/10 09:24:25;;;;;;;13.28;8.40;;;;;;;8.47;69.45;100460.75;1682193;83;21106;-61
2021/12/10 09:26:56;;;;;;;13.45;7.58;;;;;;;8.43;69.45;100460.62;1705184;82;21609;-61
2021/12/10 09:29:27;;;;;;;13.68;7.87;;;;;;;8.40;69.73;100458.17;1684077;83;21594;-60
2021/12/10 09:31:54;;;;;;;13.00;8.25;;;;;;;8.41;69.85;100458.06;1688134;83;21130;-61
2021/12/10 09:34:21;;;;;;;14.23;8.48;;;;;;;8.43;69.69;100454.06;1683340;82;21101;-61
2021/12/10 09:36:48;;;;;;;12.45;7.83;;;;;;;8.46;69.48;100444.67;1686944;84;22188;-60
2021/12/10 09:39:15;;;;;;;13.40;8.05;;;;;;;8.58;69.36;100444.28;1669595;82;21135;-61
2021/12/10 09:41:42;;;;;;;13.03;8.38;;;;;;;8.66;68.98;100440.64;1686709;82;21121;-61
2021/12/10 09:44:09;;;;;;;12.35;7.90;;;;;;;8.66;68.81;100441.95;1688406;84;21035;-61
2021/12/10 09:46:37;;;;;;;15.00;9.28;;;;;;;8.63;68.82;100444.80;1700085;82;22985;-61
2021/12/10 09:49:05;;;;;;;16.50;9.63;;;;;;;8.56;68.92;100448.32;1734899;81;20976;-60
2021/12/10 09:51:37;;;;;;;14.93;8.30;;;;;;;8.51;68.99;100440.77;1731244;80;21056;-61
2021/12/10 09:54:10;;;;;;;14.93;9.18;;;;;;;8.46;68.88;100441.56;1733205;81;21102;-61
2021/12/10 09:56:35;;;;;;;13.80;9.00;;;;;;;8.37;68.90;100437.78;1733292;80;21012;-59
2021/12/10 09:59:01;;;;;;;13.35;8.03;;;;;;;8.28;69.08;100438.41;1732553;80;21215;-62
2021/12/10 10:01:32;;;;;;;20.23;9.83;;;;;;;8.26;69.22;100437.68;1733056;80;21055;-60
2021/12/10 10:04:01;;;;;;;12.20;8.00;;;;;;;8.32;69.11;100441.20;1722571;81;21858;-61
2021/12/10 10:06:31;;;;;;;15.98;9.15;;;;;;;8.36;69.05;100443.95;1691723;82;21098;-61
2021/12/10 10:08:58;;;;;;;14.63;8.93;;;;;;;8.38;69.19;100445.16;1717598;82;21115;-60
2021/12/10 10:11:28;;;;;;;14.98;8.03;;;;;;;8.37;69.29;100438.23;1729589;80;21218;-59
2021/12/10 10:13:56;;;;;;;15.45;8.23;;;;;;;8.34;69.27;100440.61;1731730;80;21063;-60
2021/12/10 10:16:26;;;;;;;14.07;8.63;;;;;;;8.27;69.30;100432.81;1729682;81;20968;-62
2021/12/10 10:18:53;;;;;;;15.50;8.48;;;;;;;8.23;69.39;100428.72;1732667;80;21092;-61
2021/12/10 10:21:24;;;;;;;13.58;8.38;;;;;;;8.20;69.46;100431.55;1731011;80;21111;-59
2021/12/10 10:23:51;;;;;;;13.08;8.23;;;;;;;8.14;69.53;100416.27;1736938;80;21083;-61
2021/12/10 10:26:22;;;;;;;12.70;8.60;;;;;;;8.14;69.46;100409.71;1726714;80;21055;-61
2021/12/10 10:28:49;;;;;;;13.53;7.97;;;;;;;8.21;69.33;100416.19;1735216;80;21171;-60
2021/12/10 10:31:20;;;;;;;14.03;8.53;;;;;;;8.27;69.45;100410.98;1732679;80;21102;-60
2021/12/10 10:33:50;;;;;;;12.75;8.83;;;;;;;8.31;69.50;100408.05;1737136;80;21012;-61
2021/12/10 10:36:19;;;;;;;13.95;9.28;;;;;;;8.35;69.45;100414.77;1725356;80;21104;-60
2021/12/10 10:38:49;;;;;;;15.40;10.05;;;;;;;8.35;69.39;100401.66;1736272;81;21573;-61
2021/12/10 10:41:16;;;;;;;14.28;9.65;;;;;;;8.36;69.42;100403.80;1734769;80;21026;-61
2021/12/10 10:43:43;;;;;;;15.18;9.58;;;;;;;8.35;69.38;100399.04;1733170;80;21044;-61
2021/12/10 10:46:11;;;;;;;15.83;10.72;;;;;;;8.32;69.36;100391.38;1719043;80;21111;-61
2021/12/10 10:48:43;;;;;;;20.90;11.28;;;;;;;8.29;69.41;100388.97;1737596;80;21854;-61
2021/12/10 10:51:12;;;;;;;15.08;9.25;;;;;;;8.31;69.41;100380.52;1735398;80;21076;-62
2021/12/10 10:53:49;;;;;;;14.78;9.35;;;;;;;8.41;69.27;100373.33;1721091;81;21038;-61
2021/12/10 10:56:19;;;;;;;15.32;10.05;;;;;;;8.49;69.16;100361.38;1735367;80;21039;-61
2021/12/10 10:58:52;;;;;;;17.37;10.68;;;;;;;8.53;69.12;100371.16;1735413;80;21053;-61
2021/12/10 11:01:24;;;;;;;17.17;11.18;;;;;;;8.53;69.11;100363.30;1725701;80;22400;-62
2021/12/10 11:04:18;;;;;;;14.90;10.40;;;;;;;8.49;69.19;100363.99;1723961;81;21234;-62
2021/12/10 11:06:47;;;;;;;16.30;10.30;;;;;;;8.48;69.32;100361.48;1725364;80;21063;-63
2021/12/10 11:09:20;;;;;;;19.52;11.22;;;;;;;8.43;69.32;100360.97;1736086;80;21070;-61
2021/12/10 11:11:56;;;;;;;15.32;10.18;;;;;;;8.36;69.55;100359.23;1738445;80;21020;-60
2021/12/10 11:14:32;;;;;;;16.67;9.88;;;;;;;8.31;69.65;100360.03;1735995;80;22315;-62
2021/12/10 11:17:11;;;;;;;17.73;11.25;;;;;;;8.35;69.78;100362.33;1698293;82;21547;-62
2021/12/10 11:19:37;;;;;;;17.48;9.98;;;;;;;8.45;69.60;100360.38;1719208;81;21075;-60
2021/12/10 11:22:11;;;;;;;15.60;9.58;;;;;;;8.49;69.69;100355.27;1718471;81;21110;-62
2021/12/10 11:24:47;;;;;;;16.07;9.53;;;;;;;8.53;69.66;100356.73;1739977;80;21091;-61
2021/12/10 11:27:30;;;;;;;15.35;10.00;;;;;;;8.54;69.74;100348.77;1721051;80;21222;-62
2021/12/10 11:30:17;;;;;;;17.67;10.00;;;;;;;8.53;69.64;100351.02;1735913;81;21627;-59
2021/12/10 11:32:53;;;;;;;15.68;10.25;;;;;;;8.47;69.54;100347.98;1728625;81;21095;-62
2021/12/10 11:35:36;;;;;;;17.73;10.18;;;;;;;8.36;69.58;100340.39;1723098;81;21083;-62
2021/12/10 11:38:10;;;;;;;15.68;9.63;;;;;;;8.29;69.70;100331.30;1725877;81;21052;-62
2021/12/10 11:40:54;;;;;;;15.28;10.23;;;;;;;8.29;69.76;100331.78;1726619;82;21055;-62
2021/12/10 11:43:54;;;;;;;14.15;9.58;;;;;;;8.37;69.63;100331.59;1725240;80;21059;-62
2021/12/10 11:46:32;;;;;;;12.90;9.05;;;;;;;8.42;69.64;100324.68;1699583;81;21075;-62